sensor_id;sensor_type;location;lat;lon;timestamp;temperature;humidity
20231;DHT22;10274;49.022;9.338;2023-04-23T00:00:28;12.30;99.90
20231;DHT22;10274;49.022;9.338;2023-04-23T00:02:56;12.30;99.90
20231;DHT22;10274;49.022;9.338;2023-04-23T00:05:26;12.20;99.90
20231;DHT22;10274;49.022;9.338;2023-04-23T00:07:53;12.20;99.90
20231;DHT22;10274;49.022;9.338;2023-04-23T00:10:22;12.20;99.90
20231;DHT22;10274;49.022;9.338;2023-04-23T00:12:49;12.30;99.90
20231;DHT22;10274;49.022;9.338;2023-04-23T00:15:16;12.20;99.90
20231;DHT22;10274;49.022;9.338;2023-04-23T00:20:13;12.10;99.90
20231;DHT22;10274;49.022;9.338;2023-04-23T00:22:41;12.10;99.90
20231;DHT22;10274;49.022;9.338;2023-04-23T00:25:08;12.10;99.90
20231;DHT22;10274;49.022;9.338;2023-04-23T00:27:36;12.10;99.90
20231;DHT22;10274;49.022;9.338;2023-04-23T00:30:04;12.10;99.90
20231;DHT22;10274;49.022;9.338;2023-04-23T00:32:31;12.10;99.90
20231;DHT22;10274;49.022;9.338;2023-04-23T00:34:57;12.20;99.90
20231;DHT22;10274;49.022;9.338;2023-04-23T00:37:25;12.30;99.90
20231;DHT22;10274;49.022;9.338;2023-04-23T00:39:52;12.40;99.90
20231;DHT22;10274;49.022;9.338;2023-04-23T00:42:18;12.40;99.90
20231;DHT22;10274;49.022;9.338;2023-04-23T00:44:47;12.40;99.90
20231;DHT22;10274;49.022;9.338;2023-04-23T00:47:15;12.60;99.90
20231;DHT22;10274;49.022;9.338;2023-04-23T00:49:44;12.50;99.90
20231;DHT22;10274;49.022;9.338;2023-04-23T00:52:11;12.60;99.90
20231;DHT22;10274;49.022;9.338;2023-04-23T00:54:38;12.60;99.90
20231;DHT22;10274;49.022;9.338;2023-04-23T00:57:05;12.60;99.90
20231;DHT22;10274;49.022;9.338;2023-04-23T00:59:32;12.60;99.90
20231;DHT22;10274;49.022;9.338;2023-04-23T01:02:01;12.40;99.90
20231;DHT22;10274;49.022;9.338;2023-04-23T01:04:29;12.40;99.90
20231;DHT22;10274;49.022;9.338;2023-04-23T01:06:58;12.30;99.90
20231;DHT22;10274;49.022;9.338;2023-04-23T01:09:25;12.40;99.90
20231;DHT22;10274;49.022;9.338;2023-04-23T01:11:53;12.40;99.90
20231;DHT22;10274;49.022;9.338;2023-04-23T01:14:20;12.40;99.90
20231;DHT22;10274;49.022;9.338;2023-04-23T01:16:47;12.40;99.90
20231;DHT22;10274;49.022;9.338;2023-04-23T01:19:15;12.50;99.90
20231;DHT22;10274;49.022;9.338;2023-04-23T01:21:42;12.40;99.90
20231;DHT22;10274;49.022;9.338;2023-04-23T01:24:10;12.50;99.90
20231;DHT22;10274;49.022;9.338;2023-04-23T01:26:38;12.40;99.90
20231;DHT22;10274;49.022;9.338;2023-04-23T01:29:04;12.40;99.90
20231;DHT22;10274;49.022;9.338;2023-04-23T01:31:32;12.30;99.90
20231;DHT22;10274;49.022;9.338;2023-04-23T01:33:59;12.30;99.90
20231;DHT22;10274;49.022;9.338;2023-04-23T01:36:27;12.30;99.90
20231;DHT22;10274;49.022;9.338;2023-04-23T01:38:54;12.30;99.90
20231;DHT22;10274;49.022;9.338;2023-04-23T01:41:22;12.30;99.90
20231;DHT22;10274;49.022;9.338;2023-04-23T01:43:48;12.40;99.90
20231;DHT22;10274;49.022;9.338;2023-04-23T01:46:15;12.40;99.90
20231;DHT22;10274;49.022;9.338;2023-04-23T01:48:42;12.40;99.90
20231;DHT22;10274;49.022;9.338;2023-04-23T01:51:09;12.40;99.90
20231;DHT22;10274;49.022;9.338;2023-04-23T01:53:35;12.40;99.90
20231;DHT22;10274;49.022;9.338;2023-04-23T01:56:02;12.40;99.90
20231;DHT22;10274;49.022;9.338;2023-04-23T01:58:31;12.30;99.90
20231;DHT22;10274;49.022;9.338;2023-04-23T02:00:58;12.20;99.90
20231;DHT22;10274;49.022;9.338;2023-04-23T02:03:25;12.20;99.90
20231;DHT22;10274;49.022;9.338;2023-04-23T02:05:53;12.20;99.90
20231;DHT22;10274;49.022;9.338;2023-04-23T02:08:20;12.20;99.90
20231;DHT22;10274;49.022;9.338;2023-04-23T02:10:47;12.20;99.90
20231;DHT22;10274;49.022;9.338;2023-04-23T02:13:14;12.20;99.90
20231;DHT22;10274;49.022;9.338;2023-04-23T02:15:41;12.30;99.90
20231;DHT22;10274;49.022;9.338;2023-04-23T02:18:08;12.30;99.90
20231;DHT22;10274;49.022;9.338;2023-04-23T02:20:36;12.20;99.90
20231;DHT22;10274;49.022;9.338;2023-04-23T02:23:03;12.10;99.90
20231;DHT22;10274;49.022;9.338;2023-04-23T02:25:30;12.10;99.90
20231;DHT22;10274;49.022;9.338;2023-04-23T02:27:57;12.10;99.90
20231;DHT22;10274;49.022;9.338;2023-04-23T02:30:26;12.10;99.90
20231;DHT22;10274;49.022;9.338;2023-04-23T02:32:54;12.10;99.90
20231;DHT22;10274;49.022;9.338;2023-04-23T02:35:21;12.10;99.90
20231;DHT22;10274;49.022;9.338;2023-04-23T02:37:48;12.00;99.90
20231;DHT22;10274;49.022;9.338;2023-04-23T02:40:14;12.00;99.90
20231;DHT22;10274;49.022;9.338;2023-04-23T02:42:41;12.00;99.90
20231;DHT22;10274;49.022;9.338;2023-04-23T02:45:08;12.00;99.90
20231;DHT22;10274;49.022;9.338;2023-04-23T02:47:35;11.80;99.90
20231;DHT22;10274;49.022;9.338;2023-04-23T02:50:05;11.90;99.90
20231;DHT22;10274;49.022;9.338;2023-04-23T02:52:32;11.90;99.90
20231;DHT22;10274;49.022;9.338;2023-04-23T02:54:58;12.00;99.90
20231;DHT22;10274;49.022;9.338;2023-04-23T02:57:26;12.00;99.90
20231;DHT22;10274;49.022;9.338;2023-04-23T02:59:53;12.00;99.90
20231;DHT22;10274;49.022;9.338;2023-04-23T03:02:19;12.00;99.90
20231;DHT22;10274;49.022;9.338;2023-04-23T03:04:46;11.90;99.90
20231;DHT22;10274;49.022;9.338;2023-04-23T03:07:14;11.80;99.90
20231;DHT22;10274;49.022;9.338;2023-04-23T03:09:41;12.00;99.90
20231;DHT22;10274;49.022;9.338;2023-04-23T03:12:08;11.80;99.90
20231;DHT22;10274;49.022;9.338;2023-04-23T03:14:35;11.70;99.90
20231;DHT22;10274;49.022;9.338;2023-04-23T03:17:01;11.80;99.90
20231;DHT22;10274;49.022;9.338;2023-04-23T03:19:28;11.80;99.90
20231;DHT22;10274;49.022;9.338;2023-04-23T03:21:55;11.80;99.90
20231;DHT22;10274;49.022;9.338;2023-04-23T03:24:23;11.80;99.90
20231;DHT22;10274;49.022;9.338;2023-04-23T03:26:50;11.80;99.90
20231;DHT22;10274;49.022;9.338;2023-04-23T03:29:17;11.70;99.90
20231;DHT22;10274;49.022;9.338;2023-04-23T03:31:43;11.60;99.90
20231;DHT22;10274;49.022;9.338;2023-04-23T03:34:10;11.50;99.90
20231;DHT22;10274;49.022;9.338;2023-04-23T03:36:36;11.40;99.90
20231;DHT22;10274;49.022;9.338;2023-04-23T03:39:03;11.40;99.90
20231;DHT22;10274;49.022;9.338;2023-04-23T03:41:31;11.40;99.90
20231;DHT22;10274;49.022;9.338;2023-04-23T03:43:58;11.40;99.90
20231;DHT22;10274;49.022;9.338;2023-04-23T03:46:24;11.40;99.90
20231;DHT22;10274;49.022;9.338;2023-04-23T03:48:51;11.50;99.90
20231;DHT22;10274;49.022;9.338;2023-04-23T03:51:18;11.50;99.90
20231;DHT22;10274;49.022;9.338;2023-04-23T03:53:44;11.60;99.90
20231;DHT22;10274;49.022;9.338;2023-04-23T03:56:11;11.60;99.90
20231;DHT22;10274;49.022;9.338;2023-04-23T03:58:39;11.60;99.90
20231;DHT22;10274;49.022;9.338;2023-04-23T04:01:06;11.50;99.90
20231;DHT22;10274;49.022;9.338;2023-04-23T04:03:32;11.50;99.90
20231;DHT22;10274;49.022;9.338;2023-04-23T04:06:00;11.40;99.90
20231;DHT22;10274;49.022;9.338;2023-04-23T04:08:26;11.30;99.90
20231;DHT22;10274;49.022;9.338;2023-04-23T04:10:54;11.30;99.90
20231;DHT22;10274;49.022;9.338;2023-04-23T04:13:21;11.30;99.90
20231;DHT22;10274;49.022;9.338;2023-04-23T04:15:49;11.30;99.90
20231;DHT22;10274;49.022;9.338;2023-04-23T04:18:15;11.30;99.90
20231;DHT22;10274;49.022;9.338;2023-04-23T04:20:42;11.30;99.90
20231;DHT22;10274;49.022;9.338;2023-04-23T04:23:09;11.40;99.90
20231;DHT22;10274;49.022;9.338;2023-04-23T04:25:36;11.30;99.90
20231;DHT22;10274;49.022;9.338;2023-04-23T04:28:04;11.30;99.90
20231;DHT22;10274;49.022;9.338;2023-04-23T04:30:32;11.20;99.90
20231;DHT22;10274;49.022;9.338;2023-04-23T04:33:00;11.20;99.90
20231;DHT22;10274;49.022;9.338;2023-04-23T04:35:26;11.20;99.90
20231;DHT22;10274;49.022;9.338;2023-04-23T04:37:53;11.20;99.90
20231;DHT22;10274;49.022;9.338;2023-04-23T04:40:20;11.30;99.90
20231;DHT22;10274;49.022;9.338;2023-04-23T04:42:46;11.30;99.90
20231;DHT22;10274;49.022;9.338;2023-04-23T04:45:13;11.20;99.90
20231;DHT22;10274;49.022;9.338;2023-04-23T04:47:41;11.30;99.90
20231;DHT22;10274;49.022;9.338;2023-04-23T04:50:10;11.40;99.90
20231;DHT22;10274;49.022;9.338;2023-04-23T04:52:36;11.50;99.90
20231;DHT22;10274;49.022;9.338;2023-04-23T04:55:03;11.40;99.90
20231;DHT22;10274;49.022;9.338;2023-04-23T04:57:31;11.30;99.90
20231;DHT22;10274;49.022;9.338;2023-04-23T05:00:00;11.30;99.90
20231;DHT22;10274;49.022;9.338;2023-04-23T05:02:27;11.40;99.90
20231;DHT22;10274;49.022;9.338;2023-04-23T05:04:54;11.40;99.90
20231;DHT22;10274;49.022;9.338;2023-04-23T05:07:22;11.40;99.90
20231;DHT22;10274;49.022;9.338;2023-04-23T05:09:48;11.40;99.90
20231;DHT22;10274;49.022;9.338;2023-04-23T05:12:15;11.50;99.90
20231;DHT22;10274;49.022;9.338;2023-04-23T05:14:41;11.50;99.90
20231;DHT22;10274;49.022;9.338;2023-04-23T05:17:08;11.50;99.90
20231;DHT22;10274;49.022;9.338;2023-04-23T05:19:36;11.50;99.90
20231;DHT22;10274;49.022;9.338;2023-04-23T05:22:02;11.60;99.90
20231;DHT22;10274;49.022;9.338;2023-04-23T05:24:30;11.70;99.90
20231;DHT22;10274;49.022;9.338;2023-04-23T05:26:57;11.70;99.90
20231;DHT22;10274;49.022;9.338;2023-04-23T05:29:23;11.70;99.90
20231;DHT22;10274;49.022;9.338;2023-04-23T05:31:50;11.80;99.90
20231;DHT22;10274;49.022;9.338;2023-04-23T05:34:17;11.80;99.90
20231;DHT22;10274;49.022;9.338;2023-04-23T05:36:43;11.90;99.90
20231;DHT22;10274;49.022;9.338;2023-04-23T05:39:12;12.00;99.90
20231;DHT22;10274;49.022;9.338;2023-04-23T05:41:40;12.10;99.90
20231;DHT22;10274;49.022;9.338;2023-04-23T05:44:06;12.20;99.90
20231;DHT22;10274;49.022;9.338;2023-04-23T05:46:33;12.10;99.90
20231;DHT22;10274;49.022;9.338;2023-04-23T05:49:00;12.10;99.90
20231;DHT22;10274;49.022;9.338;2023-04-23T05:51:26;12.20;99.90
20231;DHT22;10274;49.022;9.338;2023-04-23T05:53:53;12.30;99.90
20231;DHT22;10274;49.022;9.338;2023-04-23T05:56:20;12.30;99.90
20231;DHT22;10274;49.022;9.338;2023-04-23T05:58:48;12.30;99.90
20231;DHT22;10274;49.022;9.338;2023-04-23T06:01:14;12.30;99.90
20231;DHT22;10274;49.022;9.338;2023-04-23T06:03:41;12.30;99.90
20231;DHT22;10274;49.022;9.338;2023-04-23T06:06:09;12.30;99.90
20231;DHT22;10274;49.022;9.338;2023-04-23T06:08:36;12.30;99.90
20231;DHT22;10274;49.022;9.338;2023-04-23T06:11:04;12.30;99.90
20231;DHT22;10274;49.022;9.338;2023-04-23T06:13:30;12.30;99.90
20231;DHT22;10274;49.022;9.338;2023-04-23T06:15:59;12.30;99.90
20231;DHT22;10274;49.022;9.338;2023-04-23T06:18:25;12.40;99.90
20231;DHT22;10274;49.022;9.338;2023-04-23T06:20:52;12.50;99.90
20231;DHT22;10274;49.022;9.338;2023-04-23T06:23:21;12.50;99.90
20231;DHT22;10274;49.022;9.338;2023-04-23T06:25:47;12.60;99.90
20231;DHT22;10274;49.022;9.338;2023-04-23T06:28:14;12.60;99.90
20231;DHT22;10274;49.022;9.338;2023-04-23T06:30:41;12.60;99.90
20231;DHT22;10274;49.022;9.338;2023-04-23T06:33:09;12.70;99.90
20231;DHT22;10274;49.022;9.338;2023-04-23T06:35:36;12.60;99.90
20231;DHT22;10274;49.022;9.338;2023-04-23T06:38:03;12.70;99.90
20231;DHT22;10274;49.022;9.338;2023-04-23T06:40:31;12.80;99.90
20231;DHT22;10274;49.022;9.338;2023-04-23T06:42:57;12.80;99.90
20231;DHT22;10274;49.022;9.338;2023-04-23T06:45:24;12.90;99.90
20231;DHT22;10274;49.022;9.338;2023-04-23T06:47:51;12.90;99.90
20231;DHT22;10274;49.022;9.338;2023-04-23T06:50:19;13.00;99.90
20231;DHT22;10274;49.022;9.338;2023-04-23T06:52:45;13.10;69.10
20231;DHT22;10274;49.022;9.338;2023-04-23T06:55:12;13.10;84.30
20231;DHT22;10274;49.022;9.338;2023-04-23T06:57:39;13.00;70.60
20231;DHT22;10274;49.022;9.338;2023-04-23T07:00:07;13.00;79.70
20231;DHT22;10274;49.022;9.338;2023-04-23T07:02:35;12.90;92.40
20231;DHT22;10274;49.022;9.338;2023-04-23T07:05:02;12.80;1.00
20231;DHT22;10274;49.022;9.338;2023-04-23T07:07:30;13.00;73.00
20231;DHT22;10274;49.022;9.338;2023-04-23T07:09:57;13.10;99.90
20231;DHT22;10274;49.022;9.338;2023-04-23T07:12:23;13.20;99.90
20231;DHT22;10274;49.022;9.338;2023-04-23T07:14:50;13.30;99.90
20231;DHT22;10274;49.022;9.338;2023-04-23T07:17:18;13.30;99.90
20231;DHT22;10274;49.022;9.338;2023-04-23T07:19:44;13.40;44.30
20231;DHT22;10274;49.022;9.338;2023-04-23T07:22:12;13.40;65.00
20231;DHT22;10274;49.022;9.338;2023-04-23T07:24:40;13.40;55.70
20231;DHT22;10274;49.022;9.338;2023-04-23T07:27:07;13.40;1.00
20231;DHT22;10274;49.022;9.338;2023-04-23T07:29:34;13.60;1.60
20231;DHT22;10274;49.022;9.338;2023-04-23T07:32:00;14.00;27.60
20231;DHT22;10274;49.022;9.338;2023-04-23T07:34:27;14.20;1.00
20231;DHT22;10274;49.022;9.338;2023-04-23T07:36:55;14.20;1.00
20231;DHT22;10274;49.022;9.338;2023-04-23T07:39:22;14.20;1.00
20231;DHT22;10274;49.022;9.338;2023-04-23T07:41:50;14.30;1.00
20231;DHT22;10274;49.022;9.338;2023-04-23T07:44:17;14.50;1.00
20231;DHT22;10274;49.022;9.338;2023-04-23T07:46:43;14.60;1.00
20231;DHT22;10274;49.022;9.338;2023-04-23T07:49:10;14.60;1.00
20231;DHT22;10274;49.022;9.338;2023-04-23T07:51:37;14.60;1.00
20231;DHT22;10274;49.022;9.338;2023-04-23T07:54:04;14.70;1.00
20231;DHT22;10274;49.022;9.338;2023-04-23T07:56:30;14.90;1.00
20231;DHT22;10274;49.022;9.338;2023-04-23T07:58:59;15.00;1.00
20231;DHT22;10274;49.022;9.338;2023-04-23T08:01:25;15.00;1.00
20231;DHT22;10274;49.022;9.338;2023-04-23T08:03:52;15.10;1.00
20231;DHT22;10274;49.022;9.338;2023-04-23T08:06:20;15.00;1.00
20231;DHT22;10274;49.022;9.338;2023-04-23T08:08:47;15.00;1.00
20231;DHT22;10274;49.022;9.338;2023-04-23T08:11:14;14.80;1.00
20231;DHT22;10274;49.022;9.338;2023-04-23T08:13:41;15.00;1.00
20231;DHT22;10274;49.022;9.338;2023-04-23T08:16:09;15.30;1.00
20231;DHT22;10274;49.022;9.338;2023-04-23T08:18:35;15.50;1.00
20231;DHT22;10274;49.022;9.338;2023-04-23T08:21:02;15.60;1.00
20231;DHT22;10274;49.022;9.338;2023-04-23T08:23:29;15.80;1.00
20231;DHT22;10274;49.022;9.338;2023-04-23T08:25:56;15.90;1.00
20231;DHT22;10274;49.022;9.338;2023-04-23T08:28:23;15.90;1.00
20231;DHT22;10274;49.022;9.338;2023-04-23T08:30:49;16.10;99.90
20231;DHT22;10274;49.022;9.338;2023-04-23T08:33:18;15.70;1.00
20231;DHT22;10274;49.022;9.338;2023-04-23T08:35:45;15.60;1.00
20231;DHT22;10274;49.022;9.338;2023-04-23T08:38:12;16.00;99.90
20231;DHT22;10274;49.022;9.338;2023-04-23T08:40:41;16.30;99.90
20231;DHT22;10274;49.022;9.338;2023-04-23T08:43:12;16.60;99.90
20231;DHT22;10274;49.022;9.338;2023-04-23T08:45:42;16.50;1.00
20231;DHT22;10274;49.022;9.338;2023-04-23T08:48:12;16.00;1.00
20231;DHT22;10274;49.022;9.338;2023-04-23T08:50:42;16.30;99.90
20231;DHT22;10274;49.022;9.338;2023-04-23T08:53:09;16.60;1.00
20231;DHT22;10274;49.022;9.338;2023-04-23T08:55:36;16.50;1.00
20231;DHT22;10274;49.022;9.338;2023-04-23T08:58:03;16.70;99.90
20231;DHT22;10274;49.022;9.338;2023-04-23T09:00:31;16.70;99.90
20231;DHT22;10274;49.022;9.338;2023-04-23T09:02:58;16.70;1.00
20231;DHT22;10274;49.022;9.338;2023-04-23T09:05:25;16.60;99.90
20231;DHT22;10274;49.022;9.338;2023-04-23T09:07:53;17.20;99.90
20231;DHT22;10274;49.022;9.338;2023-04-23T09:10:20;17.40;99.90
20231;DHT22;10274;49.022;9.338;2023-04-23T09:12:47;18.10;1.00
20231;DHT22;10274;49.022;9.338;2023-04-23T09:15:14;18.20;1.00
20231;DHT22;10274;49.022;9.338;2023-04-23T09:17:41;18.20;1.00
20231;DHT22;10274;49.022;9.338;2023-04-23T09:20:09;18.30;1.00
20231;DHT22;10274;49.022;9.338;2023-04-23T09:22:40;18.00;1.00
20231;DHT22;10274;49.022;9.338;2023-04-23T09:25:10;18.20;1.00
20231;DHT22;10274;49.022;9.338;2023-04-23T09:27:37;17.90;1.00
20231;DHT22;10274;49.022;9.338;2023-04-23T09:30:05;17.90;23.40
20231;DHT22;10274;49.022;9.338;2023-04-23T09:32:34;18.00;99.90
20231;DHT22;10274;49.022;9.338;2023-04-23T09:35:02;18.20;99.90
20231;DHT22;10274;49.022;9.338;2023-04-23T09:37:30;17.60;1.00
20231;DHT22;10274;49.022;9.338;2023-04-23T09:40:00;17.80;1.00
20231;DHT22;10274;49.022;9.338;2023-04-23T09:42:31;18.20;1.00
20231;DHT22;10274;49.022;9.338;2023-04-23T09:45:04;19.10;99.90
20231;DHT22;10274;49.022;9.338;2023-04-23T09:47:32;19.00;1.00
20231;DHT22;10274;49.022;9.338;2023-04-23T09:49:59;18.70;1.00
20231;DHT22;10274;49.022;9.338;2023-04-23T09:52:27;18.50;1.00
20231;DHT22;10274;49.022;9.338;2023-04-23T09:54:56;18.00;1.00
20231;DHT22;10274;49.022;9.338;2023-04-23T09:57:24;18.30;1.00
20231;DHT22;10274;49.022;9.338;2023-04-23T09:59:53;18.40;1.00
20231;DHT22;10274;49.022;9.338;2023-04-23T10:02:26;18.30;1.00
20231;DHT22;10274;49.022;9.338;2023-04-23T10:04:52;18.60;1.00
20231;DHT22;10274;49.022;9.338;2023-04-23T10:07:19;18.60;99.90
20231;DHT22;10274;49.022;9.338;2023-04-23T10:09:47;18.80;99.90
20231;DHT22;10274;49.022;9.338;2023-04-23T10:12:14;19.60;61.30
20231;DHT22;10274;49.022;9.338;2023-04-23T10:14:41;19.20;99.90
20231;DHT22;10274;49.022;9.338;2023-04-23T10:17:10;18.60;97.60
20231;DHT22;10274;49.022;9.338;2023-04-23T10:19:38;18.20;99.90
20231;DHT22;10274;49.022;9.338;2023-04-23T10:22:09;17.90;99.90
20231;DHT22;10274;49.022;9.338;2023-04-23T10:24:39;18.00;99.90
20231;DHT22;10274;49.022;9.338;2023-04-23T10:27:10;18.10;99.90
20231;DHT22;10274;49.022;9.338;2023-04-23T10:29:37;18.10;1.00
20231;DHT22;10274;49.022;9.338;2023-04-23T10:32:05;18.30;1.00
20231;DHT22;10274;49.022;9.338;2023-04-23T10:34:33;18.40;1.00
20231;DHT22;10274;49.022;9.338;2023-04-23T10:37:01;18.70;99.90
20231;DHT22;10274;49.022;9.338;2023-04-23T10:39:31;18.60;99.90
20231;DHT22;10274;49.022;9.338;2023-04-23T10:41:58;18.50;99.90
20231;DHT22;10274;49.022;9.338;2023-04-23T10:44:31;18.20;99.90
20231;DHT22;10274;49.022;9.338;2023-04-23T10:46:58;18.00;99.90
20231;DHT22;10274;49.022;9.338;2023-04-23T10:49:29;18.20;99.90
20231;DHT22;10274;49.022;9.338;2023-04-23T10:52:02;18.30;99.90
20231;DHT22;10274;49.022;9.338;2023-04-23T10:54:30;18.80;99.90
20231;DHT22;10274;49.022;9.338;2023-04-23T10:56:59;20.00;99.90
20231;DHT22;10274;49.022;9.338;2023-04-23T10:59:28;20.90;1.00
20231;DHT22;10274;49.022;9.338;2023-04-23T11:01:56;20.50;1.00
20231;DHT22;10274;49.022;9.338;2023-04-23T11:04:25;20.40;99.90
20231;DHT22;10274;49.022;9.338;2023-04-23T11:06:55;20.20;99.90
20231;DHT22;10274;49.022;9.338;2023-04-23T11:09:37;20.20;99.90
20231;DHT22;10274;49.022;9.338;2023-04-23T11:12:07;20.40;99.90
20231;DHT22;10274;49.022;9.338;2023-04-23T11:14:41;20.10;99.90
20231;DHT22;10274;49.022;9.338;2023-04-23T11:17:10;19.30;99.90
20231;DHT22;10274;49.022;9.338;2023-04-23T11:19:39;18.60;99.90
20231;DHT22;10274;49.022;9.338;2023-04-23T11:22:06;19.10;99.90
20231;DHT22;10274;49.022;9.338;2023-04-23T11:24:40;19.60;99.90
20231;DHT22;10274;49.022;9.338;2023-04-23T11:27:08;19.60;99.90
20231;DHT22;10274;49.022;9.338;2023-04-23T11:29:37;19.70;99.90
20231;DHT22;10274;49.022;9.338;2023-04-23T11:32:04;19.50;99.90
20231;DHT22;10274;49.022;9.338;2023-04-23T11:34:35;19.20;99.90
20231;DHT22;10274;49.022;9.338;2023-04-23T11:37:02;19.30;99.90
20231;DHT22;10274;49.022;9.338;2023-04-23T11:39:29;20.00;99.90
20231;DHT22;10274;49.022;9.338;2023-04-23T11:41:57;20.00;99.90
20231;DHT22;10274;49.022;9.338;2023-04-23T11:44:27;20.50;99.90
20231;DHT22;10274;49.022;9.338;2023-04-23T11:46:54;20.60;99.90
20231;DHT22;10274;49.022;9.338;2023-04-23T11:49:21;20.50;99.90
20231;DHT22;10274;49.022;9.338;2023-04-23T11:51:47;20.20;99.90
20231;DHT22;10274;49.022;9.338;2023-04-23T11:54:14;19.90;99.90
20231;DHT22;10274;49.022;9.338;2023-04-23T11:56:41;20.20;99.90
20231;DHT22;10274;49.022;9.338;2023-04-23T11:59:09;19.80;99.90
20231;DHT22;10274;49.022;9.338;2023-04-23T12:01:44;20.00;99.90
20231;DHT22;10274;49.022;9.338;2023-04-23T12:04:12;20.20;99.90
20231;DHT22;10274;49.022;9.338;2023-04-23T12:06:41;20.50;99.90
20231;DHT22;10274;49.022;9.338;2023-04-23T12:09:08;20.60;99.90
20231;DHT22;10274;49.022;9.338;2023-04-23T12:11:36;20.80;99.90
20231;DHT22;10274;49.022;9.338;2023-04-23T12:14:03;20.90;99.90
20231;DHT22;10274;49.022;9.338;2023-04-23T12:16:36;20.70;99.90
20231;DHT22;10274;49.022;9.338;2023-04-23T12:21:30;20.30;99.90
20231;DHT22;10274;49.022;9.338;2023-04-23T12:23:57;20.40;99.90
20231;DHT22;10274;49.022;9.338;2023-04-23T12:26:25;20.60;99.60
20231;DHT22;10274;49.022;9.338;2023-04-23T12:28:52;20.30;39.20
20231;DHT22;10274;49.022;9.338;2023-04-23T12:31:21;20.40;1.00
20231;DHT22;10274;49.022;9.338;2023-04-23T12:33:55;20.70;1.00
20231;DHT22;10274;49.022;9.338;2023-04-23T12:36:26;21.20;1.00
20231;DHT22;10274;49.022;9.338;2023-04-23T12:38:54;20.90;1.00
20231;DHT22;10274;49.022;9.338;2023-04-23T12:41:21;20.50;1.00
20231;DHT22;10274;49.022;9.338;2023-04-23T12:43:48;20.60;1.00
20231;DHT22;10274;49.022;9.338;2023-04-23T12:46:15;20.90;1.00
20231;DHT22;10274;49.022;9.338;2023-04-23T12:48:42;21.30;1.00
20231;DHT22;10274;49.022;9.338;2023-04-23T12:51:10;20.50;1.00
20231;DHT22;10274;49.022;9.338;2023-04-23T12:53:37;21.50;1.00
20231;DHT22;10274;49.022;9.338;2023-04-23T12:56:04;21.80;1.00
20231;DHT22;10274;49.022;9.338;2023-04-23T12:58:30;21.40;1.00
20231;DHT22;10274;49.022;9.338;2023-04-23T13:00:57;21.50;1.00
20231;DHT22;10274;49.022;9.338;2023-04-23T13:03:24;21.30;1.00
20231;DHT22;10274;49.022;9.338;2023-04-23T13:05:50;21.60;1.00
20231;DHT22;10274;49.022;9.338;2023-04-23T13:08:18;21.20;1.00
20231;DHT22;10274;49.022;9.338;2023-04-23T13:10:45;21.00;1.00
20231;DHT22;10274;49.022;9.338;2023-04-23T13:13:12;20.70;1.00
20231;DHT22;10274;49.022;9.338;2023-04-23T13:15:38;20.90;1.00
20231;DHT22;10274;49.022;9.338;2023-04-23T13:18:05;21.20;1.00
20231;DHT22;10274;49.022;9.338;2023-04-23T13:20:32;21.30;1.00
20231;DHT22;10274;49.022;9.338;2023-04-23T13:22:59;21.60;1.00
20231;DHT22;10274;49.022;9.338;2023-04-23T13:25:28;21.40;1.00
20231;DHT22;10274;49.022;9.338;2023-04-23T13:27:55;21.30;1.00
20231;DHT22;10274;49.022;9.338;2023-04-23T13:30:22;21.60;1.00
20231;DHT22;10274;49.022;9.338;2023-04-23T13:32:48;21.60;1.00
20231;DHT22;10274;49.022;9.338;2023-04-23T13:35:15;21.50;1.00
20231;DHT22;10274;49.022;9.338;2023-04-23T13:37:42;21.50;1.00
20231;DHT22;10274;49.022;9.338;2023-04-23T13:40:10;22.10;1.00
20231;DHT22;10274;49.022;9.338;2023-04-23T13:42:38;22.30;1.00
20231;DHT22;10274;49.022;9.338;2023-04-23T13:45:05;22.00;1.00
20231;DHT22;10274;49.022;9.338;2023-04-23T13:47:33;21.70;1.00
20231;DHT22;10274;49.022;9.338;2023-04-23T13:50:00;21.80;1.00
20231;DHT22;10274;49.022;9.338;2023-04-23T13:52:29;22.20;1.00
20231;DHT22;10274;49.022;9.338;2023-04-23T13:54:57;22.70;1.00
20231;DHT22;10274;49.022;9.338;2023-04-23T13:57:24;22.30;1.00
20231;DHT22;10274;49.022;9.338;2023-04-23T13:59:54;22.10;1.00
20231;DHT22;10274;49.022;9.338;2023-04-23T14:02:21;22.40;1.00
20231;DHT22;10274;49.022;9.338;2023-04-23T14:04:48;23.00;1.00
20231;DHT22;10274;49.022;9.338;2023-04-23T14:07:15;22.80;1.00
20231;DHT22;10274;49.022;9.338;2023-04-23T14:09:41;23.10;1.00
20231;DHT22;10274;49.022;9.338;2023-04-23T14:12:09;22.80;1.00
20231;DHT22;10274;49.022;9.338;2023-04-23T14:14:35;22.60;1.00
20231;DHT22;10274;49.022;9.338;2023-04-23T14:17:04;21.60;1.00
20231;DHT22;10274;49.022;9.338;2023-04-23T14:19:30;21.10;1.00
20231;DHT22;10274;49.022;9.338;2023-04-23T14:21:59;21.10;1.00
20231;DHT22;10274;49.022;9.338;2023-04-23T14:24:27;21.50;1.00
20231;DHT22;10274;49.022;9.338;2023-04-23T14:26:58;21.80;1.00
20231;DHT22;10274;49.022;9.338;2023-04-23T14:29:29;21.80;1.00
20231;DHT22;10274;49.022;9.338;2023-04-23T14:31:57;21.50;1.00
20231;DHT22;10274;49.022;9.338;2023-04-23T14:34:25;21.30;1.00
20231;DHT22;10274;49.022;9.338;2023-04-23T14:36:52;20.90;1.00
20231;DHT22;10274;49.022;9.338;2023-04-23T14:39:21;20.80;1.00
20231;DHT22;10274;49.022;9.338;2023-04-23T14:41:47;21.20;1.00
20231;DHT22;10274;49.022;9.338;2023-04-23T14:44:14;21.60;1.00
20231;DHT22;10274;49.022;9.338;2023-04-23T14:46:41;21.60;1.00
20231;DHT22;10274;49.022;9.338;2023-04-23T14:49:07;21.60;1.00
20231;DHT22;10274;49.022;9.338;2023-04-23T14:51:35;21.40;1.00
20231;DHT22;10274;49.022;9.338;2023-04-23T14:54:03;21.30;1.00
20231;DHT22;10274;49.022;9.338;2023-04-23T14:56:29;21.20;1.00
20231;DHT22;10274;49.022;9.338;2023-04-23T14:58:56;21.00;1.00
20231;DHT22;10274;49.022;9.338;2023-04-23T15:01:23;21.20;1.00
20231;DHT22;10274;49.022;9.338;2023-04-23T15:03:51;21.50;1.00
20231;DHT22;10274;49.022;9.338;2023-04-23T15:06:18;21.50;1.00
20231;DHT22;10274;49.022;9.338;2023-04-23T15:08:46;21.30;1.00
20231;DHT22;10274;49.022;9.338;2023-04-23T15:11:13;20.90;1.00
20231;DHT22;10274;49.022;9.338;2023-04-23T15:13:48;20.90;1.00
20231;DHT22;10274;49.022;9.338;2023-04-23T15:16:23;20.90;1.00
20231;DHT22;10274;49.022;9.338;2023-04-23T15:18:50;20.80;1.00
20231;DHT22;10274;49.022;9.338;2023-04-23T15:21:17;20.70;1.00
20231;DHT22;10274;49.022;9.338;2023-04-23T15:23:45;20.60;1.00
20231;DHT22;10274;49.022;9.338;2023-04-23T15:26:12;20.50;1.00
20231;DHT22;10274;49.022;9.338;2023-04-23T15:28:38;20.40;1.00
20231;DHT22;10274;49.022;9.338;2023-04-23T15:31:05;20.40;1.00
20231;DHT22;10274;49.022;9.338;2023-04-23T15:33:32;20.40;1.00
20231;DHT22;10274;49.022;9.338;2023-04-23T15:35:58;20.40;1.00
20231;DHT22;10274;49.022;9.338;2023-04-23T15:38:26;20.40;1.00
20231;DHT22;10274;49.022;9.338;2023-04-23T15:40:55;20.30;1.00